createdAt,value
2023-05-05T00:01:37.747Z,14.40
2023-05-05T00:04:08.606Z,14.40
2023-05-05T00:06:39.287Z,14.40
2023-05-05T00:09:09.853Z,14.40
2023-05-05T00:11:40.558Z,14.40
2023-05-05T00:14:11.312Z,14.30
2023-05-05T00:16:42.030Z,14.30
2023-05-05T00:19:12.707Z,14.50
2023-05-05T00:21:43.352Z,14.40
2023-05-05T00:24:13.951Z,14.30
2023-05-05T00:26:44.633Z,14.20
2023-05-05T00:29:15.281Z,14.20
2023-05-05T00:31:46.298Z,13.80
2023-05-05T00:34:16.987Z,13.40
2023-05-05T00:36:47.716Z,13.40
2023-05-05T00:39:19.060Z,13.40
2023-05-05T00:41:49.887Z,13.30
2023-05-05T00:44:22.370Z,13.20
2023-05-05T00:46:53.074Z,13.20
2023-05-05T00:49:23.842Z,13.20
2023-05-05T00:51:54.739Z,13.10
2023-05-05T00:54:25.493Z,13.20
2023-05-05T00:56:56.076Z,13.10
2023-05-05T00:59:27.173Z,13.20
2023-05-05T01:01:58.313Z,13.10
2023-05-05T01:04:29.254Z,13.20
2023-05-05T01:07:07.142Z,13.00
2023-05-05T01:09:42.059Z,13.00
2023-05-05T01:12:20.649Z,13.00
2023-05-05T01:14:54.918Z,12.90
2023-05-05T01:17:28.539Z,12.90
2023-05-05T01:20:06.999Z,12.80
2023-05-05T01:22:41.484Z,12.70
2023-05-05T01:28:28.099Z,12.60
2023-05-05T01:31:10.294Z,12.60
2023-05-05T01:33:45.457Z,12.60
2023-05-05T01:36:21.637Z,12.50
2023-05-05T01:38:55.500Z,12.40
2023-05-05T01:41:30.119Z,12.30
2023-05-05T01:44:03.713Z,12.10
2023-05-05T01:46:36.817Z,11.90
2023-05-05T01:49:10.076Z,11.90
2023-05-05T01:51:42.758Z,11.90
2023-05-05T01:54:14.843Z,12.00
2023-05-05T01:56:47.470Z,12.20
2023-05-05T01:59:19.267Z,12.30
2023-05-05T02:01:52.250Z,12.20
2023-05-05T02:04:24.499Z,12.30
2023-05-05T02:06:57.457Z,12.40
2023-05-05T02:09:29.168Z,12.60
2023-05-05T02:12:03.075Z,12.60
2023-05-05T02:14:35.098Z,12.20
2023-05-05T02:17:06.448Z,11.90
2023-05-05T02:19:41.289Z,11.80
2023-05-05T02:22:12.358Z,11.90
2023-05-05T02:24:42.927Z,11.90
2023-05-05T02:27:15.458Z,11.80
2023-05-05T02:29:52.167Z,11.80
2023-05-05T02:32:25.402Z,11.90
2023-05-05T02:34:58.419Z,11.90
2023-05-05T02:37:31.421Z,12.00
2023-05-05T02:40:05.426Z,11.90
2023-05-05T02:42:39.572Z,11.90
2023-05-05T02:45:15.261Z,11.80
2023-05-05T02:47:46.014Z,11.80
2023-05-05T02:50:17.309Z,11.70
2023-05-05T02:52:48.615Z,11.50
2023-05-05T02:55:19.362Z,11.40
2023-05-05T02:57:54.832Z,11.30
2023-05-05T03:00:29.767Z,11.20
2023-05-05T03:03:05.158Z,11.10
2023-05-05T03:05:46.502Z,11.00
2023-05-05T03:08:20.783Z,10.90
2023-05-05T03:10:54.710Z,10.90
2023-05-05T03:13:27.705Z,10.80
2023-05-05T03:15:59.348Z,10.60
2023-05-05T03:18:32.713Z,10.60
2023-05-05T03:21:06.519Z,10.60
2023-05-05T03:23:37.584Z,10.80
2023-05-05T03:26:08.198Z,10.90
2023-05-05T03:28:38.896Z,11.10
2023-05-05T03:31:09.761Z,11.20
2023-05-05T03:33:40.366Z,11.40
2023-05-05T03:36:11.448Z,11.30
2023-05-05T03:38:42.110Z,11.00
2023-05-05T03:41:12.804Z,11.00
2023-05-05T03:43:43.373Z,11.10
2023-05-05T03:46:14.177Z,11.10
2023-05-05T03:48:45.011Z,11.10
2023-05-05T03:51:16.629Z,11.20
2023-05-05T03:53:47.280Z,11.20
2023-05-05T03:56:17.866Z,11.10
2023-05-05T03:58:48.512Z,11.20
2023-05-05T04:01:19.266Z,11.10
2023-05-05T04:03:49.915Z,11.10
2023-05-05T04:06:20.566Z,11.10
2023-05-05T04:08:51.222Z,11.00
2023-05-05T04:11:22.163Z,11.00
2023-05-05T04:13:52.752Z,11.00
2023-05-05T04:16:23.863Z,10.90
2023-05-05T04:18:55.529Z,10.90
2023-05-05T04:21:26.177Z,10.90
2023-05-05T04:23:57.836Z,10.70
2023-05-05T04:26:28.552Z,10.50
2023-05-05T04:28:59.313Z,10.40
2023-05-05T04:31:32.251Z,10.50
2023-05-05T04:34:02.882Z,10.50
2023-05-05T04:36:33.523Z,10.40
2023-05-05T04:39:06.480Z,10.40
2023-05-05T04:41:37.652Z,10.40
2023-05-05T04:44:08.831Z,10.40
2023-05-05T04:46:39.633Z,10.40
2023-05-05T04:49:10.672Z,10.50
2023-05-05T04:51:44.457Z,10.60
2023-05-05T04:54:15.539Z,10.60
2023-05-05T04:56:46.713Z,10.60
2023-05-05T04:59:17.376Z,10.70
2023-05-05T05:01:48.201Z,10.80
2023-05-05T05:04:19.049Z,10.80
2023-05-05T05:06:49.846Z,10.90
2023-05-05T05:09:20.479Z,11.00
2023-05-05T05:11:51.185Z,11.10
2023-05-05T05:14:21.933Z,11.20
2023-05-05T05:16:52.685Z,11.30
2023-05-05T05:19:23.544Z,11.60
2023-05-05T05:21:54.224Z,11.80
2023-05-05T05:24:25.497Z,11.80
2023-05-05T05:26:56.327Z,11.80
2023-05-05T05:29:27.225Z,11.80
2023-05-05T05:31:57.912Z,11.80
2023-05-05T05:34:28.565Z,11.80
2023-05-05T05:36:59.220Z,11.90
2023-05-05T05:42:08.824Z,12.40
2023-05-05T05:44:39.508Z,12.40
2023-05-05T05:47:10.096Z,12.30
2023-05-05T05:49:40.841Z,12.20
2023-05-05T05:54:50.580Z,12.30
2023-05-05T05:57:22.622Z,12.40
2023-05-05T05:59:54.059Z,12.70
2023-05-05T06:02:26.659Z,12.90
2023-05-05T06:04:57.554Z,13.20
2023-05-05T06:07:29.264Z,13.30
2023-05-05T06:10:04.848Z,13.40
2023-05-05T06:12:32.397Z,13.50
2023-05-05T06:15:03.163Z,13.50
2023-05-05T06:17:34.360Z,13.70
2023-05-05T06:20:05.617Z,13.80
2023-05-05T06:22:36.537Z,14.00
2023-05-05T06:25:08.954Z,14.00
2023-05-05T06:27:39.606Z,14.20
2023-05-05T06:30:12.430Z,14.50
2023-05-05T06:32:43.198Z,14.70
2023-05-05T06:35:13.978Z,14.70
2023-05-05T06:37:45.202Z,14.80
2023-05-05T06:40:16.933Z,15.00
2023-05-05T06:42:48.630Z,15.20
2023-05-05T06:45:19.992Z,15.30
2023-05-05T06:47:50.731Z,15.40
2023-05-05T06:50:21.731Z,15.20
2023-05-05T06:52:53.344Z,15.10
2023-05-05T06:55:25.297Z,14.70
2023-05-05T06:57:56.355Z,14.60
2023-05-05T07:00:27.339Z,14.80
2023-05-05T07:02:58.458Z,15.10
2023-05-05T07:05:29.222Z,15.30
2023-05-05T07:08:00.065Z,15.50
2023-05-05T07:10:31.636Z,15.70
2023-05-05T07:13:02.431Z,15.70
2023-05-05T07:15:33.133Z,15.80
2023-05-05T07:18:04.066Z,16.10
2023-05-05T07:20:34.929Z,16.20
2023-05-05T07:23:05.711Z,16.40
2023-05-05T07:25:37.331Z,16.40
2023-05-05T07:28:14.715Z,16.40
2023-05-05T07:30:45.995Z,16.50
2023-05-05T07:33:19.420Z,16.60
2023-05-05T07:35:50.150Z,16.60
2023-05-05T07:38:20.883Z,16.70
2023-05-05T07:40:51.644Z,16.90
2023-05-05T07:43:22.332Z,17.00
2023-05-05T07:45:53.079Z,17.20
2023-05-05T07:48:23.736Z,17.40
2023-05-05T07:50:55.237Z,17.60
2023-05-05T07:53:26.220Z,17.70
2023-05-05T07:55:57.120Z,17.80
2023-05-05T07:58:27.982Z,17.80
2023-05-05T08:00:58.830Z,18.10
2023-05-05T08:03:29.752Z,18.00
2023-05-05T08:08:40.316Z,17.90
2023-05-05T08:11:11.012Z,17.70
2023-05-05T08:13:43.211Z,17.80
2023-05-05T08:16:14.228Z,17.50
2023-05-05T08:18:45.194Z,17.50
2023-05-05T08:21:16.206Z,17.60
2023-05-05T08:23:46.841Z,17.90
2023-05-05T08:26:17.459Z,17.90
2023-05-05T08:28:48.930Z,18.10
2023-05-05T08:31:19.613Z,18.10
2023-05-05T08:33:50.279Z,18.20
2023-05-05T08:36:20.971Z,18.30
2023-05-05T08:38:51.662Z,18.60
2023-05-05T08:41:22.506Z,19.10
2023-05-05T08:43:53.374Z,19.40
2023-05-05T08:46:25.435Z,19.60
2023-05-05T08:48:57.525Z,19.80
2023-05-05T08:51:32.378Z,20.10
2023-05-05T08:54:06.806Z,20.40
2023-05-05T08:56:40.616Z,20.40
2023-05-05T08:59:13.627Z,20.50
2023-05-05T09:01:46.250Z,20.30
2023-05-05T09:04:18.883Z,20.20
2023-05-05T09:06:49.562Z,20.20
2023-05-05T09:09:20.727Z,20.40
2023-05-05T09:11:53.597Z,20.60
2023-05-05T09:14:24.236Z,20.70
2023-05-05T09:16:54.849Z,20.70
2023-05-05T09:19:25.591Z,20.90
2023-05-05T09:21:56.590Z,21.20
2023-05-05T09:24:27.442Z,21.10
2023-05-05T09:26:59.700Z,21.00
2023-05-05T09:29:30.700Z,21.20
2023-05-05T09:32:07.921Z,21.00
2023-05-05T09:34:38.782Z,21.30
2023-05-05T09:37:16.256Z,21.60
2023-05-05T09:42:34.408Z,21.80
2023-05-05T09:45:05.912Z,22.10
2023-05-05T09:47:39.936Z,22.10
2023-05-05T09:50:13.204Z,22.10
2023-05-05T09:52:47.211Z,22.40
2023-05-05T09:55:21.128Z,22.30
2023-05-05T09:57:52.152Z,22.30
2023-05-05T10:03:04.465Z,22.60
2023-05-05T10:05:36.970Z,22.90
2023-05-05T10:08:14.422Z,22.80
2023-05-05T10:10:54.498Z,22.50
2023-05-05T10:13:26.511Z,22.90
2023-05-05T10:15:58.539Z,23.50
2023-05-05T10:18:34.037Z,23.40
2023-05-05T10:21:06.267Z,23.50
2023-05-05T10:23:41.246Z,23.60
2023-05-05T10:26:14.917Z,23.30
2023-05-05T10:28:49.596Z,23.40
2023-05-05T10:31:26.515Z,23.70
2023-05-05T10:33:58.635Z,23.90
2023-05-05T10:36:30.695Z,24.20
2023-05-05T10:39:04.176Z,24.20
2023-05-05T10:41:41.563Z,24.50
2023-05-05T10:44:12.986Z,24.30
2023-05-05T10:46:44.784Z,24.10
2023-05-05T10:49:20.528Z,23.90
2023-05-05T10:51:56.773Z,24.50
2023-05-05T10:54:32.200Z,24.60
2023-05-05T10:57:05.041Z,24.70
2023-05-05T10:59:48.158Z,24.60
2023-05-05T11:02:24.736Z,24.50
2023-05-05T11:08:04.323Z,25.00
2023-05-05T11:10:46.069Z,25.10
2023-05-05T11:13:23.111Z,25.30
2023-05-05T11:15:55.021Z,25.30
2023-05-05T11:18:37.790Z,25.40
2023-05-05T11:21:16.750Z,25.50
2023-05-05T11:23:49.652Z,25.20
2023-05-05T11:26:23.124Z,25.50
2023-05-05T11:29:05.172Z,26.00
2023-05-05T11:31:35.932Z,25.80
2023-05-05T11:34:28.815Z,25.60
2023-05-05T11:37:06.174Z,25.50
2023-05-05T11:39:44.870Z,25.90
2023-05-05T11:45:04.413Z,25.70
2023-05-05T11:47:35.289Z,25.70
2023-05-05T11:50:23.461Z,26.10
2023-05-05T11:52:54.359Z,25.90
2023-05-05T11:55:25.823Z,26.10
2023-05-05T11:57:56.429Z,26.20
2023-05-05T12:00:36.766Z,26.20
2023-05-05T12:03:08.814Z,26.30
2023-05-05T12:05:39.533Z,26.50
2023-05-05T12:08:10.595Z,26.50
2023-05-05T12:10:41.341Z,26.60
2023-05-05T12:13:21.612Z,26.80
2023-05-05T12:15:52.316Z,26.70
2023-05-05T12:18:23.197Z,27.40
2023-05-05T12:20:53.876Z,27.70
2023-05-05T12:23:26.072Z,27.30
2023-05-05T12:25:56.878Z,27.00
2023-05-05T12:28:28.946Z,26.90
2023-05-05T12:31:00.102Z,27.00
2023-05-05T12:33:31.705Z,27.60
2023-05-05T12:36:03.147Z,27.70
2023-05-05T12:38:34.531Z,28.00
2023-05-05T12:41:05.771Z,27.80
2023-05-05T12:43:37.037Z,27.80
2023-05-05T12:46:10.490Z,28.20
2023-05-05T12:48:47.246Z,28.60
2023-05-05T12:51:20.912Z,28.70
2023-05-05T12:54:03.317Z,28.50
2023-05-05T12:56:39.064Z,28.70
2023-05-05T13:01:53.604Z,28.20
2023-05-05T13:04:25.960Z,28.10
2023-05-05T13:07:13.075Z,28.20
2023-05-05T13:09:44.220Z,28.40
2023-05-05T13:12:17.771Z,28.30
2023-05-05T13:14:49.028Z,28.40
2023-05-05T13:17:19.957Z,28.30
2023-05-05T13:19:51.441Z,28.30
2023-05-05T13:22:22.339Z,28.60
2023-05-05T13:24:53.124Z,28.00
2023-05-05T13:27:23.788Z,28.30
2023-05-05T13:29:54.542Z,28.30
2023-05-05T13:32:25.342Z,28.10
2023-05-05T13:34:56.049Z,28.40
2023-05-05T13:37:26.732Z,28.80
2023-05-05T13:39:59.205Z,29.20
2023-05-05T13:42:30.039Z,29.20
2023-05-05T13:45:01.200Z,28.90
2023-05-05T13:47:32.155Z,29.00
2023-05-05T13:50:03.142Z,29.20
2023-05-05T13:52:33.889Z,29.00
2023-05-05T13:55:04.636Z,28.70
2023-05-05T13:57:35.335Z,28.90
2023-05-05T14:00:08.199Z,28.20
2023-05-05T14:02:38.944Z,28.00
2023-05-05T14:05:11.709Z,28.60
2023-05-05T14:07:42.605Z,28.90
2023-05-05T14:10:13.698Z,29.20
2023-05-05T14:12:45.410Z,29.40
2023-05-05T14:15:16.232Z,29.50
2023-05-05T14:17:47.652Z,29.50
2023-05-05T14:20:18.579Z,28.60
2023-05-05T14:22:49.452Z,28.20
2023-05-05T14:25:21.177Z,28.30
2023-05-05T14:27:51.802Z,28.70
2023-05-05T14:30:22.819Z,29.10
2023-05-05T14:32:54.023Z,29.10
2023-05-05T14:35:24.757Z,28.50
2023-05-05T14:37:55.514Z,29.20
2023-05-05T14:40:26.755Z,29.70
2023-05-05T14:42:57.912Z,29.70
2023-05-05T14:45:29.792Z,29.60
2023-05-05T14:48:00.650Z,29.40
2023-05-05T14:50:31.383Z,28.70
2023-05-05T14:53:02.305Z,28.90
2023-05-05T14:55:33.059Z,28.80
2023-05-05T14:58:03.826Z,28.90
2023-05-05T15:00:34.840Z,28.70
2023-05-05T15:03:05.940Z,28.80
2023-05-05T15:05:36.694Z,28.80
2023-05-05T15:08:07.896Z,28.80
2023-05-05T15:10:38.675Z,29.10
2023-05-05T15:13:09.885Z,29.10
2023-05-05T15:15:41.465Z,28.80
2023-05-05T15:20:50.553Z,28.30
2023-05-05T15:23:21.157Z,28.50
2023-05-05T15:25:51.959Z,28.50
2023-05-05T15:28:22.786Z,27.90
2023-05-05T15:30:53.415Z,28.00
2023-05-05T15:33:23.992Z,28.00
2023-05-05T15:35:54.631Z,28.10
2023-05-05T15:41:03.169Z,27.80
2023-05-05T15:43:35.228Z,28.10
2023-05-05T15:46:05.886Z,27.60
2023-05-05T15:48:36.570Z,27.60
2023-05-05T15:51:07.491Z,28.30
2023-05-05T15:53:38.182Z,27.90
2023-05-05T15:56:11.058Z,27.30
2023-05-05T15:58:41.668Z,26.60
2023-05-05T16:01:12.421Z,26.20
2023-05-05T16:03:43.213Z,25.70
2023-05-05T16:06:14.983Z,25.60
2023-05-05T16:08:47.810Z,25.00
2023-05-05T16:11:19.971Z,24.80
2023-05-05T16:13:51.123Z,24.50
2023-05-05T16:16:21.957Z,24.10
2023-05-05T16:18:52.752Z,24.00
2023-05-05T16:21:24.717Z,23.90
2023-05-05T16:23:55.411Z,23.50
2023-05-05T16:26:26.287Z,23.40
2023-05-05T16:28:57.125Z,23.30
2023-05-05T16:31:27.891Z,23.20
2023-05-05T16:33:58.621Z,23.30
2023-05-05T16:36:29.356Z,23.10
2023-05-05T16:39:00.114Z,23.10
2023-05-05T16:41:31.154Z,23.00
2023-05-05T16:44:02.175Z,23.00
2023-05-05T16:46:34.595Z,22.90
2023-05-05T16:49:05.331Z,22.90
2023-05-05T16:51:36.103Z,23.00
2023-05-05T16:54:07.275Z,23.10
2023-05-05T16:56:37.845Z,23.10
2023-05-05T16:59:08.587Z,23.10
2023-05-05T17:01:39.385Z,23.30
2023-05-05T17:04:11.128Z,23.30
2023-05-05T17:06:41.781Z,23.00
2023-05-05T17:09:12.447Z,22.90
2023-05-05T17:11:43.273Z,22.60
2023-05-05T17:14:13.973Z,22.40
2023-05-05T17:16:44.806Z,22.30
2023-05-05T17:19:15.718Z,22.30
2023-05-05T17:21:46.486Z,22.20
2023-05-05T17:24:17.148Z,21.80
2023-05-05T17:26:48.081Z,21.60
2023-05-05T17:29:19.979Z,21.50
2023-05-05T17:31:51.015Z,21.50
2023-05-05T17:34:22.143Z,21.40
2023-05-05T17:36:52.816Z,21.30
2023-05-05T17:39:23.451Z,21.30
2023-05-05T17:41:54.115Z,21.20
2023-05-05T17:44:24.835Z,21.10
2023-05-05T17:46:55.894Z,21.00
2023-05-05T17:52:05.087Z,21.00
2023-05-05T17:54:36.089Z,21.00
2023-05-05T17:57:06.842Z,20.90
2023-05-05T17:59:37.489Z,20.80
2023-05-05T18:02:08.626Z,20.70
2023-05-05T18:04:39.864Z,20.70
2023-05-05T18:07:12.458Z,20.60
2023-05-05T18:09:43.195Z,20.60
2023-05-05T18:12:13.833Z,20.60
2023-05-05T18:14:44.520Z,20.60
2023-05-05T18:17:15.084Z,20.60
2023-05-05T18:19:48.475Z,20.50
2023-05-05T18:22:18.316Z,20.40
2023-05-05T18:24:49.338Z,20.30
2023-05-05T18:27:20.162Z,20.20
2023-05-05T18:29:50.962Z,20.20
2023-05-05T18:32:21.962Z,20.10
2023-05-05T18:34:53.437Z,19.90
2023-05-05T18:37:24.266Z,19.80
2023-05-05T18:39:55.240Z,19.70
2023-05-05T18:42:27.433Z,19.70
2023-05-05T18:44:58.302Z,19.70
2023-05-05T18:47:29.501Z,19.60
2023-05-05T18:50:00.218Z,19.50
2023-05-05T18:52:31.283Z,19.40
2023-05-05T18:55:02.161Z,19.30
2023-05-05T18:57:32.869Z,19.20
2023-05-05T19:00:03.695Z,19.00
2023-05-05T19:02:34.514Z,19.10
2023-05-05T19:05:06.105Z,19.00
2023-05-05T19:07:37.009Z,18.90
2023-05-05T19:10:09.822Z,18.90
2023-05-05T19:12:40.931Z,18.70
2023-05-05T19:15:13.532Z,18.70
2023-05-05T19:17:44.587Z,18.70
2023-05-05T19:20:15.652Z,18.80
2023-05-05T19:22:46.689Z,18.80
2023-05-05T19:25:18.039Z,18.70
2023-05-05T19:27:48.875Z,18.70
2023-05-05T19:30:19.587Z,18.60
2023-05-05T19:32:50.438Z,18.70
2023-05-05T19:35:21.491Z,18.50
2023-05-05T19:37:52.271Z,18.30
2023-05-05T19:40:23.122Z,18.30
2023-05-05T19:42:54.004Z,18.20
2023-05-05T19:45:24.656Z,18.00
2023-05-05T19:47:55.375Z,17.60
2023-05-05T19:50:27.373Z,17.70
2023-05-05T19:52:58.156Z,17.80
2023-05-05T19:55:29.296Z,17.80
2023-05-05T19:58:00.124Z,17.70
2023-05-05T20:00:30.870Z,17.80
2023-05-05T20:03:02.501Z,17.70
2023-05-05T20:05:33.198Z,17.80
2023-05-05T20:08:03.911Z,17.80
2023-05-05T20:10:34.641Z,17.80
2023-05-05T20:13:05.407Z,17.60
2023-05-05T20:15:36.106Z,17.50
2023-05-05T20:18:07.080Z,17.20
2023-05-05T20:20:37.860Z,17.10
2023-05-05T20:23:08.751Z,17.00
2023-05-05T20:25:39.431Z,17.00
2023-05-05T20:28:10.211Z,17.00
2023-05-05T20:30:40.818Z,17.10
2023-05-05T20:33:11.525Z,16.90
2023-05-05T20:35:42.132Z,16.80
2023-05-05T20:38:12.737Z,16.90
2023-05-05T20:40:43.860Z,17.00
2023-05-05T20:43:14.712Z,17.00
2023-05-05T20:45:45.430Z,17.00
2023-05-05T20:48:16.036Z,16.90
2023-05-05T20:50:46.725Z,17.00
2023-05-05T20:53:19.175Z,17.20
2023-05-05T20:55:49.930Z,17.20
2023-05-05T20:58:20.678Z,17.30
2023-05-05T21:00:51.357Z,17.10
2023-05-05T21:03:22.188Z,17.00
2023-05-05T21:05:52.820Z,17.00
2023-05-05T21:08:23.379Z,16.90
2023-05-05T21:10:54.039Z,16.90
2023-05-05T21:13:24.787Z,16.90
2023-05-05T21:15:55.476Z,17.00
2023-05-05T21:18:27.816Z,16.90
2023-05-05T21:21:01.488Z,16.90
2023-05-05T21:23:33.136Z,16.90
2023-05-05T21:26:04.895Z,16.90
2023-05-05T21:28:35.458Z,16.80
2023-05-05T21:31:21.194Z,16.90
2023-05-05T21:33:38.949Z,16.90
2023-05-05T21:36:10.134Z,16.80
2023-05-05T21:38:40.756Z,16.70
2023-05-05T21:41:12.479Z,16.60
2023-05-05T21:43:43.094Z,16.50
2023-05-05T21:46:13.888Z,16.40
2023-05-05T21:48:44.544Z,16.40
2023-05-05T21:51:15.311Z,16.30
2023-05-05T21:53:46.446Z,16.20
2023-05-05T21:56:17.159Z,16.10
2023-05-05T21:58:47.871Z,16.00
2023-05-05T22:01:19.452Z,16.00
2023-05-05T22:03:50.339Z,16.00
2023-05-05T22:06:21.400Z,15.80
2023-05-05T22:08:52.428Z,15.70
2023-05-05T22:11:23.179Z,15.70
2023-05-05T22:13:53.809Z,15.60
2023-05-05T22:16:24.423Z,15.50
2023-05-05T22:18:55.237Z,15.40
2023-05-05T22:21:27.777Z,15.30
2023-05-05T22:23:58.455Z,15.20
2023-05-05T22:26:29.047Z,15.30
2023-05-05T22:28:59.692Z,15.20
2023-05-05T22:31:30.937Z,15.20
2023-05-05T22:34:01.660Z,15.10
2023-05-05T22:36:32.388Z,15.10
2023-05-05T22:39:03.165Z,15.10
2023-05-05T22:41:33.893Z,15.10
2023-05-05T22:44:04.555Z,15.10
2023-05-05T22:46:35.284Z,15.10
2023-05-05T22:49:06.444Z,15.10
2023-05-05T22:51:37.221Z,15.00
2023-05-05T22:54:08.159Z,15.10
2023-05-05T22:56:39.200Z,15.10
2023-05-05T22:59:09.951Z,15.20
2023-05-05T23:01:41.181Z,15.30
2023-05-05T23:04:11.908Z,15.40
2023-05-05T23:06:42.592Z,15.80
2023-05-05T23:09:13.173Z,15.70
2023-05-05T23:11:43.961Z,15.80
2023-05-05T23:14:14.602Z,15.60
2023-05-05T23:16:45.266Z,15.30
2023-05-05T23:19:16.328Z,15.10
2023-05-05T23:21:53.166Z,14.90
2023-05-05T23:24:19.319Z,14.80
2023-05-05T23:26:49.957Z,14.80
2023-05-05T23:29:20.772Z,14.80
2023-05-05T23:31:52.447Z,14.70
2023-05-05T23:34:23.060Z,14.70
2023-05-05T23:36:53.668Z,14.70
2023-05-05T23:39:24.247Z,14.60
2023-05-05T23:41:54.897Z,14.60
2023-05-05T23:44:25.531Z,14.70
2023-05-05T23:46:56.112Z,14.70
2023-05-05T23:49:26.711Z,14.60
2023-05-05T23:51:58.788Z,14.50
2023-05-05T23:54:29.631Z,14.60
2023-05-05T23:57:00.694Z,14.50
2023-05-05T23:59:31.397Z,14.50
